createdAt,value
2023-01-08T00:01:59.498Z,6.90
2023-01-08T00:05:04.001Z,7.23
2023-01-08T00:08:08.503Z,8.07
2023-01-08T00:11:12.560Z,7.17
2023-01-08T00:14:15.855Z,7.50
2023-01-08T00:17:19.427Z,7.53
2023-01-08T00:20:24.098Z,8.40
2023-01-08T00:23:27.470Z,6.60
2023-01-08T00:26:32.568Z,8.37
2023-01-08T00:29:37.350Z,7.00
2023-01-08T00:32:40.580Z,7.43
2023-01-08T00:35:45.264Z,8.90
2023-01-08T00:38:48.734Z,7.70
2023-01-08T00:41:51.855Z,6.73
2023-01-08T00:44:55.121Z,11.37
2023-01-08T00:47:58.395Z,7.47
2023-01-08T00:51:04.030Z,7.17
2023-01-08T00:54:07.722Z,8.00
2023-01-08T00:57:10.846Z,8.13
2023-01-08T01:00:16.914Z,7.40
2023-01-08T01:03:20.091Z,8.50
2023-01-08T01:06:24.539Z,7.93
2023-01-08T01:09:27.728Z,8.60
2023-01-08T01:12:31.093Z,7.53
2023-01-08T01:15:34.168Z,8.43
2023-01-08T01:18:37.610Z,7.87
2023-01-08T01:21:42.351Z,26.63
2023-01-08T01:24:45.478Z,9.07
2023-01-08T01:27:48.633Z,9.40
2023-01-08T01:30:56.608Z,8.30
2023-01-08T01:34:00.152Z,8.03
2023-01-08T01:37:05.208Z,12.13
2023-01-08T01:40:09.373Z,9.60
2023-01-08T01:43:15.053Z,8.70
2023-01-08T01:46:27.258Z,8.10
2023-01-08T01:49:31.365Z,8.33
2023-01-08T01:52:46.338Z,8.70
2023-01-08T01:55:50.738Z,8.47
2023-01-08T01:58:53.951Z,9.57
2023-01-08T02:01:57.987Z,10.57
2023-01-08T02:05:02.013Z,10.70
2023-01-08T02:08:12.853Z,11.17
2023-01-08T02:11:21.528Z,10.50
2023-01-08T02:14:35.108Z,10.13
2023-01-08T02:17:46.549Z,9.60
2023-01-08T02:20:57.636Z,9.93
2023-01-08T02:24:12.971Z,11.70
2023-01-08T02:27:18.436Z,10.03
2023-01-08T02:30:21.942Z,9.53
2023-01-08T02:33:25.349Z,10.00
2023-01-08T02:36:37.828Z,9.40
2023-01-08T02:39:57.380Z,10.60
2023-01-08T02:43:15.447Z,11.07
2023-01-08T02:46:26.704Z,9.33
2023-01-08T02:49:33.979Z,9.50
2023-01-08T02:52:46.094Z,10.47
2023-01-08T02:55:53.308Z,11.17
2023-01-08T02:58:59.580Z,12.27
2023-01-08T03:02:04.971Z,11.83
2023-01-08T03:05:15.778Z,10.13
2023-01-08T03:08:20.795Z,10.33
2023-01-08T03:11:25.942Z,12.07
2023-01-08T03:14:37.284Z,14.70
2023-01-08T03:17:46.231Z,11.43
2023-01-08T03:20:50.798Z,11.10
2023-01-08T03:23:54.623Z,11.10
2023-01-08T03:27:00.732Z,10.70
2023-01-08T03:30:08.325Z,11.30
2023-01-08T03:33:14.447Z,10.50
2023-01-08T03:36:22.015Z,12.97
2023-01-08T03:39:31.581Z,12.63
2023-01-08T03:42:34.944Z,14.73
2023-01-08T03:45:45.777Z,13.00
2023-01-08T03:48:50.569Z,11.37
2023-01-08T03:51:53.712Z,11.83
2023-01-08T03:54:57.350Z,12.57
2023-01-08T03:58:00.552Z,11.60
2023-01-08T04:01:04.907Z,13.70
2023-01-08T04:04:08.880Z,11.50
2023-01-08T04:07:18.574Z,11.50
2023-01-08T04:10:21.500Z,12.07
2023-01-08T04:13:26.040Z,10.73
2023-01-08T04:16:31.636Z,14.70
2023-01-08T04:19:34.724Z,11.27
2023-01-08T04:22:37.669Z,13.53
2023-01-08T04:25:41.525Z,11.57
2023-01-08T04:28:44.566Z,14.93
2023-01-08T04:31:49.213Z,13.33
2023-01-08T04:34:52.160Z,13.83
2023-01-08T04:37:55.493Z,12.83
2023-01-08T04:40:59.312Z,11.87
2023-01-08T04:44:02.901Z,13.20
2023-01-08T04:47:07.223Z,12.00
2023-01-08T04:50:10.833Z,12.37
2023-01-08T04:53:13.822Z,11.87
2023-01-08T04:56:19.088Z,12.40
2023-01-08T04:59:22.092Z,12.20
2023-01-08T05:02:29.424Z,13.03
2023-01-08T05:05:36.653Z,11.73
2023-01-08T05:08:39.804Z,12.90
2023-01-08T05:11:43.251Z,14.60
2023-01-08T05:14:46.458Z,15.50
2023-01-08T05:17:50.778Z,12.67
2023-01-08T05:20:53.831Z,12.53
2023-01-08T05:23:56.755Z,12.80
2023-01-08T05:26:59.687Z,12.87
2023-01-08T05:30:03.753Z,12.77
2023-01-08T05:33:08.156Z,13.80
2023-01-08T05:36:13.834Z,13.47
2023-01-08T05:39:17.177Z,12.03
2023-01-08T05:42:20.207Z,14.07
2023-01-08T05:45:23.214Z,11.80
2023-01-08T05:48:28.001Z,12.63
2023-01-08T05:51:31.095Z,14.13
2023-01-08T05:54:34.197Z,12.47
2023-01-08T05:57:37.211Z,12.23
2023-01-08T06:00:40.960Z,12.93
2023-01-08T06:03:45.529Z,10.70
2023-01-08T06:06:48.751Z,10.77
2023-01-08T06:09:52.091Z,12.10
2023-01-08T06:12:57.801Z,11.47
2023-01-08T06:16:01.190Z,13.83
2023-01-08T06:19:09.956Z,12.17
2023-01-08T06:22:13.033Z,11.73
2023-01-08T06:25:16.348Z,10.90
2023-01-08T06:28:19.316Z,11.27
2023-01-08T06:31:25.619Z,12.23
2023-01-08T06:34:36.314Z,12.30
2023-01-08T06:37:39.352Z,13.27
2023-01-08T06:40:47.397Z,13.87
2023-01-08T06:43:50.434Z,13.10
2023-01-08T06:46:53.553Z,12.53
2023-01-08T06:49:59.158Z,11.40
2023-01-08T06:53:03.786Z,12.17
2023-01-08T06:56:10.727Z,10.83
2023-01-08T06:59:16.740Z,11.67
2023-01-08T07:02:20.634Z,11.13
2023-01-08T07:05:25.895Z,11.43
2023-01-08T07:08:30.137Z,11.67
2023-01-08T07:11:35.823Z,14.33
2023-01-08T07:14:39.221Z,10.00
2023-01-08T07:17:45.512Z,12.60
2023-01-08T07:20:50.744Z,11.67
2023-01-08T07:23:53.886Z,10.30
2023-01-08T07:26:57.452Z,9.17
2023-01-08T07:30:03.711Z,9.93
2023-01-08T07:33:07.894Z,10.60
2023-01-08T07:36:28.514Z,14.93
2023-01-08T07:39:31.800Z,12.67
2023-01-08T07:42:34.847Z,12.63
2023-01-08T07:45:37.848Z,12.50
2023-01-08T07:48:42.929Z,11.40
2023-01-08T07:51:52.627Z,11.73
2023-01-08T07:54:58.809Z,11.47
2023-01-08T07:58:08.177Z,9.80
2023-01-08T08:01:26.599Z,10.87
2023-01-08T08:04:29.801Z,10.60
2023-01-08T08:07:34.622Z,10.03
2023-01-08T08:10:37.768Z,10.90
2023-01-08T08:13:44.893Z,10.40
2023-01-08T08:16:48.021Z,9.53
2023-01-08T08:19:51.040Z,10.77
2023-01-08T08:23:03.640Z,12.00
2023-01-08T08:26:07.798Z,11.50
2023-01-08T08:29:11.504Z,10.63
2023-01-08T08:32:14.581Z,8.73
2023-01-08T08:35:17.800Z,9.40
2023-01-08T08:38:24.247Z,8.97
2023-01-08T08:41:27.361Z,9.47
2023-01-08T08:44:31.364Z,10.40
2023-01-08T08:47:34.504Z,10.57
2023-01-08T08:50:40.066Z,10.70
2023-01-08T08:53:44.436Z,11.00
2023-01-08T08:56:49.419Z,9.40
2023-01-08T08:59:53.032Z,10.03
2023-01-08T09:02:56.502Z,9.17
2023-01-08T09:05:59.971Z,9.40
2023-01-08T09:09:07.890Z,8.73
2023-01-08T09:12:10.999Z,8.90
2023-01-08T09:15:13.978Z,9.00
2023-01-08T09:18:17.714Z,8.33
2023-01-08T09:21:20.737Z,11.30
2023-01-08T09:24:25.055Z,8.93
2023-01-08T09:27:28.036Z,7.70
2023-01-08T09:30:31.544Z,8.27
2023-01-08T09:33:36.039Z,7.40
2023-01-08T09:36:39.569Z,8.67
2023-01-08T09:39:48.048Z,8.40
2023-01-08T09:42:57.038Z,9.07
2023-01-08T09:46:05.136Z,8.63
2023-01-08T09:49:18.441Z,9.10
2023-01-08T09:52:24.077Z,8.30
2023-01-08T09:55:34.406Z,8.23
2023-01-08T09:58:40.559Z,8.40
2023-01-08T10:01:46.344Z,8.07
2023-01-08T10:04:56.284Z,7.57
2023-01-08T10:07:59.353Z,9.23
2023-01-08T10:11:04.275Z,7.50
2023-01-08T10:14:21.108Z,8.60
2023-01-08T10:17:29.483Z,7.40
2023-01-08T10:20:33.892Z,10.23
2023-01-08T10:23:36.896Z,9.10
2023-01-08T10:26:41.304Z,9.60
2023-01-08T10:29:45.019Z,9.37
2023-01-08T10:32:52.437Z,7.77
2023-01-08T10:36:03.350Z,7.80
2023-01-08T10:39:06.862Z,8.27
2023-01-08T10:42:12.044Z,9.23
2023-01-08T10:45:22.537Z,10.50
2023-01-08T10:48:32.306Z,9.10
2023-01-08T10:51:35.387Z,9.20
2023-01-08T10:54:41.538Z,9.30
2023-01-08T10:57:57.987Z,10.37
2023-01-08T11:01:11.646Z,11.47
2023-01-08T11:04:25.130Z,10.30
2023-01-08T11:07:28.998Z,10.37
2023-01-08T11:10:34.029Z,11.00
2023-01-08T11:13:42.601Z,9.73
2023-01-08T11:16:48.840Z,8.90
2023-01-08T11:19:52.867Z,11.03
2023-01-08T11:23:06.489Z,11.13
2023-01-08T11:26:18.680Z,10.37
2023-01-08T11:29:37.298Z,10.60
2023-01-08T11:32:47.196Z,10.23
2023-01-08T11:35:54.491Z,13.27
2023-01-08T11:39:07.152Z,10.30
2023-01-08T11:42:36.892Z,9.30
2023-01-08T11:45:58.673Z,10.07
2023-01-08T11:49:27.618Z,10.50
2023-01-08T11:52:44.425Z,10.03
2023-01-08T11:56:02.017Z,10.37
2023-01-08T11:59:20.405Z,10.80
2023-01-08T12:02:48.819Z,9.77
2023-01-08T12:06:00.477Z,9.47
2023-01-08T12:09:20.053Z,10.53
2023-01-08T12:12:42.407Z,9.70
2023-01-08T12:16:02.417Z,10.17
2023-01-08T12:19:34.172Z,10.50
2023-01-08T12:22:54.898Z,11.50
2023-01-08T12:26:18.570Z,10.13
2023-01-08T12:29:47.011Z,10.30
2023-01-08T12:32:59.964Z,12.40
2023-01-08T12:36:18.913Z,13.53
2023-01-08T12:39:32.574Z,10.17
2023-01-08T12:42:47.320Z,12.13
2023-01-08T12:45:58.052Z,11.00
2023-01-08T12:49:03.516Z,10.23
2023-01-08T12:52:15.146Z,10.67
2023-01-08T12:55:31.658Z,12.47
2023-01-08T12:58:54.737Z,11.50
2023-01-08T13:02:05.072Z,12.63
2023-01-08T13:05:31.271Z,9.87
2023-01-08T13:08:40.575Z,11.07
2023-01-08T13:11:56.774Z,10.77
2023-01-08T13:15:01.682Z,9.47
2023-01-08T13:18:20.572Z,10.57
2023-01-08T13:21:38.375Z,10.17
2023-01-08T13:24:44.474Z,10.50
2023-01-08T13:27:53.377Z,10.17
2023-01-08T13:30:57.048Z,10.63
2023-01-08T13:34:00.099Z,8.83
2023-01-08T13:37:13.657Z,10.77
2023-01-08T13:40:56.609Z,11.13
2023-01-08T13:44:05.017Z,10.63
2023-01-08T13:47:29.053Z,10.23
2023-01-08T13:50:32.997Z,10.93
2023-01-08T13:53:39.075Z,10.07
2023-01-08T14:00:06.400Z,11.73
2023-01-08T14:03:24.244Z,11.43
2023-01-08T14:06:31.921Z,11.87
2023-01-08T14:09:37.987Z,15.47
2023-01-08T14:12:42.915Z,11.60
2023-01-08T14:15:49.488Z,11.60
2023-01-08T14:18:53.772Z,12.27
2023-01-08T14:21:58.862Z,13.57
2023-01-08T14:25:07.992Z,13.70
2023-01-08T14:28:21.781Z,15.30
2023-01-08T14:31:30.095Z,15.27
2023-01-08T14:34:33.514Z,14.20
2023-01-08T14:37:36.576Z,12.50
2023-01-08T14:40:44.364Z,14.60
2023-01-08T14:43:51.087Z,12.70
2023-01-08T14:46:54.785Z,16.03
2023-01-08T14:49:58.321Z,14.47
2023-01-08T14:53:08.445Z,13.20
2023-01-08T14:56:14.442Z,14.50
2023-01-08T14:59:22.705Z,16.43
2023-01-08T15:02:36.967Z,15.60
2023-01-08T15:05:54.312Z,15.93
2023-01-08T15:09:00.647Z,14.63
2023-01-08T15:12:22.791Z,15.37
2023-01-08T15:15:30.286Z,14.67
2023-01-08T15:18:38.609Z,13.77
2023-01-08T15:22:01.570Z,17.23
2023-01-08T15:25:24.179Z,15.07
2023-01-08T15:28:27.483Z,17.00
2023-01-08T15:31:34.286Z,18.57
2023-01-08T15:34:37.254Z,18.80
2023-01-08T15:37:41.805Z,16.63
2023-01-08T15:40:47.146Z,17.93
2023-01-08T15:44:18.850Z,18.43
2023-01-08T15:47:35.342Z,16.90
2023-01-08T15:50:43.358Z,17.07
2023-01-08T15:53:57.236Z,15.50
2023-01-08T16:00:59.330Z,17.93
2023-01-08T16:04:07.842Z,19.63
2023-01-08T16:07:11.388Z,17.37
2023-01-08T16:10:15.538Z,17.90
2023-01-08T16:13:18.606Z,17.67
2023-01-08T16:16:22.277Z,16.97
2023-01-08T16:19:27.645Z,16.13
2023-01-08T16:22:30.739Z,14.20
2023-01-08T16:25:35.639Z,18.20
2023-01-08T16:28:38.800Z,15.53
2023-01-08T16:31:46.426Z,15.53
2023-01-08T16:34:50.851Z,14.63
2023-01-08T16:37:54.177Z,14.97
2023-01-08T16:40:58.469Z,14.83
2023-01-08T16:44:01.419Z,14.20
2023-01-08T16:47:05.063Z,15.47
2023-01-08T16:50:12.581Z,15.20
2023-01-08T16:53:19.030Z,17.50
2023-01-08T16:56:22.136Z,16.43
2023-01-08T16:59:28.262Z,14.27
2023-01-08T17:02:31.673Z,15.33
2023-01-08T17:05:52.736Z,15.13
2023-01-08T17:08:55.908Z,16.43
2023-01-08T17:11:59.041Z,15.30
2023-01-08T17:15:08.040Z,16.20
2023-01-08T17:18:14.267Z,13.63
2023-01-08T17:21:20.691Z,14.83
2023-01-08T17:24:23.883Z,53.20
2023-01-08T17:27:27.023Z,16.67
2023-01-08T17:30:29.996Z,35.07
2023-01-08T17:33:34.936Z,13.90
2023-01-08T17:36:41.516Z,17.77
2023-01-08T17:39:45.845Z,14.40
2023-01-08T17:42:48.945Z,14.70
2023-01-08T17:45:53.577Z,15.30
2023-01-08T17:49:03.046Z,13.93
2023-01-08T17:52:09.682Z,15.43
2023-01-08T17:55:12.686Z,15.87
2023-01-08T17:58:15.697Z,14.53
2023-01-08T18:01:19.133Z,16.03
2023-01-08T18:04:25.496Z,18.37
2023-01-08T18:07:29.877Z,13.63
2023-01-08T18:10:36.133Z,15.70
2023-01-08T18:13:47.737Z,14.80
2023-01-08T18:16:55.428Z,13.90
2023-01-08T18:19:58.387Z,14.53
2023-01-08T18:23:02.703Z,14.30
2023-01-08T18:26:07.684Z,15.47
2023-01-08T18:29:10.735Z,14.67
2023-01-08T18:32:13.764Z,16.07
2023-01-08T18:35:18.687Z,17.23
2023-01-08T18:38:26.060Z,18.40
2023-01-08T18:41:46.595Z,16.33
2023-01-08T18:44:52.539Z,18.20
2023-01-08T18:47:55.848Z,13.43
2023-01-08T18:51:04.943Z,17.97
2023-01-08T18:54:13.022Z,16.17
2023-01-08T18:57:16.787Z,14.57
2023-01-08T19:00:20.937Z,16.93
2023-01-08T19:03:26.475Z,17.60
2023-01-08T19:06:29.884Z,15.93
2023-01-08T19:09:36.274Z,16.30
2023-01-08T19:12:40.209Z,20.37
2023-01-08T19:15:43.499Z,25.40
2023-01-08T19:18:46.611Z,16.63
2023-01-08T19:21:49.809Z,17.43
2023-01-08T19:24:54.445Z,19.13
2023-01-08T19:28:00.652Z,18.80
2023-01-08T19:31:08.106Z,16.80
2023-01-08T19:34:11.561Z,21.13
2023-01-08T19:37:14.936Z,18.23
2023-01-08T19:40:25.429Z,19.60
2023-01-08T19:43:42.624Z,19.10
2023-01-08T19:46:48.207Z,19.93
2023-01-08T19:49:51.350Z,18.20
2023-01-08T19:52:56.491Z,18.73
2023-01-08T19:56:04.367Z,20.77
2023-01-08T19:59:07.360Z,18.93
2023-01-08T20:02:14.523Z,21.53
2023-01-08T20:05:23.332Z,21.37
2023-01-08T20:08:26.339Z,18.80
2023-01-08T20:11:32.040Z,20.80
2023-01-08T20:14:35.483Z,19.10
2023-01-08T20:17:45.480Z,21.50
2023-01-08T20:20:50.164Z,22.07
2023-01-08T20:24:13.413Z,18.60
2023-01-08T20:27:24.381Z,20.57
2023-01-08T20:30:33.383Z,19.93
2023-01-08T20:33:52.126Z,23.43
2023-01-08T20:36:56.390Z,19.10
2023-01-08T20:40:01.764Z,20.40
2023-01-08T20:43:18.727Z,19.50
2023-01-08T20:46:32.223Z,20.73
2023-01-08T20:49:35.560Z,21.03
2023-01-08T20:52:39.014Z,19.67
2023-01-08T20:56:01.930Z,18.40
2023-01-08T20:59:35.950Z,19.80
2023-01-08T21:02:41.626Z,19.90
2023-01-08T21:05:47.246Z,21.43
2023-01-08T21:09:01.986Z,21.57
2023-01-08T21:12:12.443Z,19.17
2023-01-08T21:15:23.892Z,19.93
2023-01-08T21:18:27.171Z,22.93
2023-01-08T21:21:34.076Z,19.30
2023-01-08T21:24:38.093Z,18.93
2023-01-08T21:27:48.915Z,19.43
2023-01-08T21:30:54.008Z,19.97
2023-01-08T21:34:04.210Z,20.30
2023-01-08T21:37:08.652Z,18.30
2023-01-08T21:40:16.929Z,19.20
2023-01-08T21:43:38.067Z,19.47
2023-01-08T21:46:42.391Z,21.83
2023-01-08T21:49:46.319Z,20.53
2023-01-08T21:53:10.442Z,20.37
2023-01-08T21:56:13.564Z,18.73
2023-01-08T21:59:17.120Z,20.30
2023-01-08T22:02:24.152Z,19.50
2023-01-08T22:05:32.292Z,16.97
2023-01-08T22:08:36.394Z,18.90
2023-01-08T22:11:39.456Z,18.13
2023-01-08T22:14:42.521Z,16.87
2023-01-08T22:17:47.120Z,16.47
2023-01-08T22:20:52.333Z,18.93
2023-01-08T22:23:59.570Z,18.00
2023-01-08T22:27:04.752Z,17.07
2023-01-08T22:30:12.569Z,18.27
2023-01-08T22:33:19.775Z,16.93
2023-01-08T22:36:23.054Z,16.13
2023-01-08T22:39:28.634Z,18.40
2023-01-08T22:42:31.690Z,14.70
2023-01-08T22:45:37.945Z,17.27
2023-01-08T22:48:44.784Z,17.30
2023-01-08T22:51:47.748Z,17.73
2023-01-08T22:54:55.254Z,16.17
2023-01-08T22:57:58.376Z,17.80
2023-01-08T23:01:01.804Z,17.00
2023-01-08T23:04:07.011Z,18.33
2023-01-08T23:07:22.754Z,17.27
2023-01-08T23:10:26.288Z,18.23
2023-01-08T23:13:33.483Z,18.03
2023-01-08T23:16:39.871Z,17.47
2023-01-08T23:19:50.458Z,17.17
2023-01-08T23:22:55.342Z,16.93
2023-01-08T23:26:03.770Z,19.60
2023-01-08T23:29:06.751Z,16.97
2023-01-08T23:32:11.654Z,19.27
2023-01-08T23:35:20.151Z,18.13
2023-01-08T23:38:23.376Z,18.40
2023-01-08T23:41:34.572Z,20.03
2023-01-08T23:44:38.905Z,20.17
2023-01-08T23:47:44.431Z,18.90
2023-01-08T23:50:49.004Z,19.10
2023-01-08T23:53:54.448Z,18.67
2023-01-08T23:56:57.545Z,21.43
